createdAt,value
2016-12-14T00:00:44.553Z,3.23
2016-12-14T00:01:44.541Z,3.21
2016-12-14T00:02:44.525Z,3.21
2016-12-14T00:03:44.510Z,3.19
2016-12-14T00:04:44.497Z,3.13
2016-12-14T00:05:44.480Z,3.14
2016-12-14T00:06:44.467Z,3.11
2016-12-14T00:07:44.452Z,3.23
2016-12-14T00:08:44.436Z,3.16
2016-12-14T00:09:44.424Z,3.11
2016-12-14T00:10:44.405Z,3.2
2016-12-14T00:11:44.391Z,3.13
2016-12-14T00:12:44.380Z,3.14
2016-12-14T00:13:44.362Z,3.17
2016-12-14T00:14:44.345Z,3.06
2016-12-14T00:15:44.342Z,3.13
2016-12-14T00:16:44.325Z,3.09
2016-12-14T00:17:44.305Z,3.03
2016-12-14T00:18:44.286Z,3.13
2016-12-14T00:19:44.275Z,3.08
2016-12-14T00:20:44.257Z,3.06
2016-12-14T00:21:44.243Z,3.17
2016-12-14T00:22:44.225Z,3.06
2016-12-14T00:23:44.214Z,3.05
2016-12-14T00:24:44.198Z,3.13
2016-12-14T00:25:44.183Z,3.09
2016-12-14T00:26:44.169Z,3.13
2016-12-14T00:27:44.156Z,3.06
2016-12-14T00:28:44.139Z,3.03
2016-12-14T00:29:44.121Z,3.14
2016-12-14T00:30:44.108Z,3.11
2016-12-14T00:31:44.095Z,3.03
2016-12-14T00:32:44.079Z,3.01
2016-12-14T00:33:44.194Z,3.06
2016-12-14T00:34:44.048Z,3.19
2016-12-14T00:35:44.583Z,3.09
2016-12-14T00:36:44.020Z,3.06
2016-12-14T00:37:44.003Z,3.03
2016-12-14T00:38:44.528Z,3.2
2016-12-14T00:39:43.976Z,3.17
2016-12-14T00:40:43.962Z,3.14
2016-12-14T00:41:44.540Z,3.17
2016-12-14T00:42:43.930Z,3.06
2016-12-14T00:43:43.915Z,3.16
2016-12-14T00:44:44.294Z,3.09
2016-12-14T00:45:43.885Z,3.11
2016-12-14T00:46:43.872Z,3.14
2016-12-14T00:47:44.264Z,3.13
2016-12-14T00:48:43.840Z,3.16
2016-12-14T00:49:43.824Z,3.06
2016-12-14T00:50:44.584Z,3.21
2016-12-14T00:51:43.798Z,3.19
2016-12-14T00:52:43.781Z,3.21
2016-12-14T00:53:44.150Z,3.21
2016-12-14T00:54:44.027Z,3.23
2016-12-14T00:55:43.736Z,3.2
2016-12-14T00:56:44.461Z,3.26
2016-12-14T00:57:43.706Z,3.24
2016-12-14T00:58:43.693Z,3.2
2016-12-14T00:59:44.335Z,3.23
2016-12-14T01:00:43.664Z,3.19
2016-12-14T01:01:43.646Z,3.26
2016-12-14T01:02:43.927Z,3.19
2016-12-14T01:03:43.620Z,3.23
2016-12-14T01:04:43.605Z,3.26
2016-12-14T01:05:44.416Z,3.23
2016-12-14T01:06:43.577Z,3.17
2016-12-14T01:07:43.562Z,3.21
2016-12-14T01:08:44.091Z,3.21
2016-12-14T01:09:43.528Z,3.23
2016-12-14T01:10:44.255Z,3.19
2016-12-14T01:11:43.499Z,3.23
2016-12-14T01:12:43.486Z,3.2
2016-12-14T01:13:44.042Z,3.24
2016-12-14T01:14:43.455Z,3.21
2016-12-14T01:15:43.441Z,3.16
2016-12-14T01:16:43.970Z,3.26
2016-12-14T01:17:43.417Z,3.24
2016-12-14T01:18:43.403Z,3.19
2016-12-14T01:19:43.932Z,3.34
2016-12-14T01:20:43.369Z,3.34
2016-12-14T01:21:43.356Z,3.32
2016-12-14T01:22:43.868Z,3.32
2016-12-14T01:23:43.321Z,3.3
2016-12-14T01:24:43.309Z,3.34
2016-12-14T01:25:43.701Z,3.34
2016-12-14T01:26:43.278Z,3.4
2016-12-14T01:27:43.264Z,3.32
2016-12-14T01:28:43.937Z,3.4
2016-12-14T01:29:43.234Z,3.34
2016-12-14T01:30:43.220Z,3.29
2016-12-14T01:31:43.829Z,3.3
2016-12-14T01:32:43.192Z,3.34
2016-12-14T01:33:43.176Z,3.23
2016-12-14T01:34:43.851Z,3.27
2016-12-14T01:35:43.149Z,3.34
2016-12-14T01:36:43.132Z,3.32
2016-12-14T01:37:44.072Z,3.29
2016-12-14T01:38:43.101Z,3.29
2016-12-14T01:39:43.089Z,3.2
2016-12-14T01:40:43.795Z,3.26
2016-12-14T01:41:43.057Z,3.17
2016-12-14T01:42:43.045Z,3.34
2016-12-14T01:43:43.651Z,3.21
2016-12-14T01:44:43.011Z,3.32
2016-12-14T01:45:42.999Z,3.32
2016-12-14T01:46:43.702Z,3.32
2016-12-14T01:47:42.974Z,3.39
2016-12-14T01:48:42.956Z,3.3
2016-12-14T01:49:43.649Z,3.34
2016-12-14T01:50:42.926Z,3.42
2016-12-14T01:51:42.914Z,3.48
2016-12-14T01:52:43.598Z,3.42
2016-12-14T01:53:42.884Z,3.4
2016-12-14T01:54:42.871Z,3.39
2016-12-14T01:55:43.543Z,3.48
2016-12-14T01:56:42.838Z,3.46
2016-12-14T01:57:42.824Z,3.48
2016-12-14T01:58:43.496Z,3.53
2016-12-14T01:59:42.798Z,3.4
2016-12-14T02:00:42.781Z,3.51
2016-12-14T02:01:43.110Z,3.49
2016-12-14T02:02:42.754Z,3.48
2016-12-14T02:03:42.934Z,3.53
2016-12-14T02:04:42.750Z,3.56
2016-12-14T02:05:42.838Z,3.48
2016-12-14T02:06:42.697Z,3.45
2016-12-14T02:07:42.681Z,3.42
2016-12-14T02:08:42.768Z,3.49
2016-12-14T02:09:42.649Z,3.49
2016-12-14T02:10:42.632Z,3.46
2016-12-14T02:11:42.623Z,3.48
2016-12-14T02:12:42.605Z,3.53
2016-12-14T02:13:42.594Z,3.48
2016-12-14T02:14:42.579Z,3.53
2016-12-14T02:15:43.220Z,3.49
2016-12-14T02:16:42.546Z,3.53
2016-12-14T02:17:42.555Z,3.54
2016-12-14T02:18:42.964Z,3.6
2016-12-14T02:19:42.508Z,3.53
2016-12-14T02:20:42.491Z,3.58
2016-12-14T02:21:42.906Z,3.57
2016-12-14T02:22:42.495Z,3.51
2016-12-14T02:23:42.445Z,3.58
2016-12-14T02:24:42.702Z,3.61
2016-12-14T02:25:42.417Z,3.67
2016-12-14T02:26:42.405Z,3.67
2016-12-14T02:27:42.766Z,3.63
2016-12-14T02:28:42.375Z,3.57
2016-12-14T02:29:42.359Z,3.61
2016-12-14T02:30:42.346Z,3.67
2016-12-14T02:31:43.435Z,3.69
2016-12-14T02:32:42.318Z,3.76
2016-12-14T02:33:42.656Z,3.71
2016-12-14T02:34:42.291Z,3.71
2016-12-14T02:35:42.274Z,3.69
2016-12-14T02:36:43.114Z,3.71
2016-12-14T02:37:42.245Z,3.63
2016-12-14T02:38:42.231Z,3.66
2016-12-14T02:39:42.602Z,3.63
2016-12-14T02:40:42.202Z,3.66
2016-12-14T02:41:42.187Z,3.72
2016-12-14T02:42:42.175Z,3.76
2016-12-14T02:43:42.410Z,3.78
2016-12-14T02:44:42.151Z,3.67
2016-12-14T02:45:42.130Z,3.72
2016-12-14T02:46:42.572Z,3.78
2016-12-14T02:47:42.101Z,3.72
2016-12-14T02:48:42.384Z,3.84
2016-12-14T02:49:42.072Z,3.82
2016-12-14T02:50:42.064Z,3.74
2016-12-14T02:51:42.519Z,3.79
2016-12-14T02:52:42.035Z,3.79
2016-12-14T02:53:42.020Z,3.79
2016-12-14T02:54:42.573Z,3.79
2016-12-14T02:55:41.991Z,3.79
2016-12-14T02:56:41.971Z,3.64
2016-12-14T02:57:42.169Z,3.76
2016-12-14T02:58:42.271Z,3.64
2016-12-14T02:59:42.693Z,3.66
2016-12-14T03:00:42.387Z,3.74
2016-12-14T03:01:42.261Z,3.74
2016-12-14T03:02:42.395Z,3.79
2016-12-14T03:03:42.098Z,3.74
2016-12-14T03:04:42.181Z,3.74
2016-12-14T03:05:42.209Z,3.76
2016-12-14T03:06:42.242Z,3.78
2016-12-14T03:07:42.450Z,3.74
2016-12-14T03:08:42.147Z,3.79
2016-12-14T03:09:42.276Z,3.75
2016-12-14T03:10:42.035Z,3.72
2016-12-14T03:11:42.204Z,3.74
2016-12-14T03:12:42.170Z,3.76
2016-12-14T03:13:42.106Z,3.74
2016-12-14T03:14:41.899Z,3.79
2016-12-14T03:15:42.203Z,3.78
2016-12-14T03:16:42.225Z,3.75
2016-12-14T03:17:42.071Z,3.84
2016-12-14T03:18:41.906Z,3.84
2016-12-14T03:19:42.189Z,3.86
2016-12-14T03:20:42.128Z,3.86
2016-12-14T03:21:42.044Z,3.84
2016-12-14T03:22:41.977Z,3.84
2016-12-14T03:23:42.163Z,3.89
2016-12-14T03:24:41.744Z,3.78
2016-12-14T03:25:42.088Z,3.84
2016-12-14T03:26:41.976Z,3.78
2016-12-14T03:27:41.955Z,3.84
2016-12-14T03:28:41.762Z,3.81
2016-12-14T03:29:42.076Z,3.79
2016-12-14T03:30:41.890Z,3.86
2016-12-14T03:31:41.481Z,3.84
2016-12-14T03:32:41.607Z,3.85
2016-12-14T03:33:41.450Z,3.84
2016-12-14T03:34:41.434Z,3.82
2016-12-14T03:35:41.553Z,3.82
2016-12-14T03:36:41.720Z,3.79
2016-12-14T03:37:41.394Z,3.76
2016-12-14T03:38:41.513Z,3.84
2016-12-14T03:39:41.363Z,3.76
2016-12-14T03:40:41.348Z,3.76
2016-12-14T03:41:41.473Z,3.85
2016-12-14T03:42:41.319Z,3.74
2016-12-14T03:43:41.308Z,3.71
2016-12-14T03:44:41.421Z,3.79
2016-12-14T03:45:41.280Z,3.79
2016-12-14T03:46:41.263Z,3.72
2016-12-14T03:47:41.247Z,3.71
2016-12-14T03:48:41.236Z,3.75
2016-12-14T03:49:41.222Z,3.76
2016-12-14T03:50:41.213Z,3.72
2016-12-14T03:51:41.195Z,3.74
2016-12-14T03:52:41.181Z,3.76
2016-12-14T03:53:41.167Z,3.85
2016-12-14T03:54:41.150Z,3.86
2016-12-14T03:55:41.180Z,3.84
2016-12-14T03:56:41.122Z,3.81
2016-12-14T03:57:41.105Z,3.82
2016-12-14T03:58:41.094Z,3.84
2016-12-14T03:59:41.077Z,3.81
2016-12-14T04:00:41.065Z,3.79
2016-12-14T04:01:41.049Z,3.9
2016-12-14T04:02:41.036Z,3.78
2016-12-14T04:03:41.022Z,3.79
2016-12-14T04:04:41.009Z,3.79
2016-12-14T04:05:40.995Z,3.85
2016-12-14T04:06:40.977Z,3.78
2016-12-14T04:07:40.973Z,3.86
2016-12-14T04:08:40.950Z,3.82
2016-12-14T04:09:40.937Z,3.81
2016-12-14T04:10:40.922Z,3.89
2016-12-14T04:11:40.911Z,3.85
2016-12-14T04:12:40.922Z,3.84
2016-12-14T04:13:40.880Z,3.9
2016-12-14T04:14:40.866Z,3.86
2016-12-14T04:15:41.171Z,3.82
2016-12-14T04:16:40.837Z,3.89
2016-12-14T04:17:40.828Z,3.89
2016-12-14T04:18:40.809Z,3.86
2016-12-14T04:19:40.795Z,3.86
2016-12-14T04:20:40.785Z,3.9
2016-12-14T04:21:40.771Z,3.86
2016-12-14T04:22:40.752Z,3.84
2016-12-14T04:23:40.737Z,3.76
2016-12-14T04:24:40.725Z,3.84
2016-12-14T04:25:40.710Z,3.76
2016-12-14T04:26:40.693Z,3.76
2016-12-14T04:27:40.681Z,3.64
2016-12-14T04:28:40.670Z,3.69
2016-12-14T04:29:40.660Z,3.74
2016-12-14T04:30:40.642Z,3.66
2016-12-14T04:31:40.624Z,3.75
2016-12-14T04:32:40.616Z,3.64
2016-12-14T04:33:40.596Z,3.6
2016-12-14T04:34:40.608Z,3.58
2016-12-14T04:35:40.570Z,3.57
2016-12-14T04:36:40.553Z,3.49
2016-12-14T04:37:40.541Z,3.57
2016-12-14T04:38:40.525Z,3.64
2016-12-14T04:39:40.518Z,3.6
2016-12-14T04:40:40.495Z,3.51
2016-12-14T04:41:40.483Z,3.51
2016-12-14T04:42:40.470Z,3.63
2016-12-14T04:43:40.456Z,3.51
2016-12-14T04:44:40.441Z,3.49
2016-12-14T04:45:40.422Z,3.58
2016-12-14T04:46:40.416Z,3.61
2016-12-14T04:47:40.398Z,3.54
2016-12-14T04:48:40.381Z,3.63
2016-12-14T04:49:40.370Z,3.58
2016-12-14T04:50:40.356Z,3.53
2016-12-14T04:51:40.338Z,3.54
2016-12-14T04:52:40.349Z,3.53
2016-12-14T04:53:40.309Z,3.49
2016-12-14T04:54:40.299Z,3.49
2016-12-14T04:55:40.286Z,3.49
2016-12-14T04:56:40.268Z,3.45
2016-12-14T04:57:40.252Z,3.43
2016-12-14T04:58:40.239Z,3.45
2016-12-14T04:59:40.222Z,3.48
2016-12-14T05:00:40.209Z,3.54
2016-12-14T05:01:40.195Z,3.58
2016-12-14T05:02:40.181Z,3.39
2016-12-14T05:03:40.164Z,3.49
2016-12-14T05:04:40.152Z,3.51
2016-12-14T05:05:40.136Z,3.45
2016-12-14T05:06:40.126Z,3.51
2016-12-14T05:07:40.106Z,3.53
2016-12-14T05:08:40.096Z,3.39
2016-12-14T05:09:40.081Z,3.48
2016-12-14T05:10:40.069Z,3.46
2016-12-14T05:11:40.051Z,3.46
2016-12-14T05:12:40.035Z,3.54
2016-12-14T05:13:40.022Z,3.46
2016-12-14T05:14:40.005Z,3.45
2016-12-14T05:15:39.993Z,3.45
2016-12-14T05:16:39.978Z,3.53
2016-12-14T05:17:39.968Z,3.54
2016-12-14T05:18:40.262Z,3.53
2016-12-14T05:19:39.934Z,3.51
2016-12-14T05:20:39.920Z,3.53
2016-12-14T05:21:39.906Z,3.51
2016-12-14T05:22:39.892Z,3.42
2016-12-14T05:23:39.876Z,3.53
2016-12-14T05:24:39.865Z,3.46
2016-12-14T05:25:39.848Z,3.48
2016-12-14T05:26:39.835Z,3.4
2016-12-14T05:27:39.819Z,3.4
2016-12-14T05:28:39.807Z,3.4
2016-12-14T05:29:39.792Z,3.43
2016-12-14T05:30:39.779Z,3.43
2016-12-14T05:31:39.762Z,3.42
2016-12-14T05:32:39.747Z,3.46
2016-12-14T05:33:39.730Z,3.43
2016-12-14T05:34:39.753Z,3.34
2016-12-14T05:35:39.707Z,3.32
2016-12-14T05:36:39.690Z,3.32
2016-12-14T05:37:39.676Z,3.24
2016-12-14T05:38:39.660Z,3.34
2016-12-14T05:39:39.641Z,3.29
2016-12-14T05:40:39.633Z,3.2
2016-12-14T05:41:39.616Z,3.32
2016-12-14T05:42:39.603Z,3.29
2016-12-14T05:43:39.584Z,3.19
2016-12-14T05:44:39.573Z,3.3
2016-12-14T05:45:39.558Z,3.32
2016-12-14T05:46:39.542Z,3.3
2016-12-14T05:47:39.528Z,3.37
2016-12-14T05:48:39.513Z,3.37
2016-12-14T05:49:39.501Z,3.4
2016-12-14T05:50:39.482Z,3.42
2016-12-14T05:51:39.466Z,3.48
2016-12-14T05:52:39.462Z,3.43
2016-12-14T05:53:39.441Z,3.4
2016-12-14T05:54:39.429Z,3.39
2016-12-14T05:55:39.410Z,3.48
2016-12-14T05:56:39.396Z,3.43
2016-12-14T05:57:39.381Z,3.42
2016-12-14T05:58:39.366Z,3.42
2016-12-14T05:59:39.354Z,3.43
2016-12-14T06:00:39.339Z,3.49
2016-12-14T06:01:39.325Z,3.46
2016-12-14T06:02:39.310Z,3.48
2016-12-14T06:03:39.302Z,3.45
2016-12-14T06:04:39.282Z,3.45
2016-12-14T06:05:39.266Z,3.35
2016-12-14T06:06:39.253Z,3.45
2016-12-14T06:07:39.556Z,3.43
2016-12-14T06:08:39.223Z,3.46
2016-12-14T06:09:39.208Z,3.35
2016-12-14T06:10:39.196Z,3.45
2016-12-14T06:11:39.182Z,3.48
2016-12-14T06:12:39.169Z,3.45
2016-12-14T06:13:39.150Z,3.48
2016-12-14T06:14:39.138Z,3.48
2016-12-14T06:15:39.121Z,3.45
2016-12-14T06:16:39.111Z,3.48
2016-12-14T06:17:39.090Z,3.56
2016-12-14T06:18:39.080Z,3.45
2016-12-14T06:19:39.066Z,3.49
2016-12-14T06:20:39.052Z,3.45
2016-12-14T06:21:39.033Z,3.53
2016-12-14T06:22:39.023Z,3.53
2016-12-14T06:23:39.007Z,3.53
2016-12-14T06:24:38.993Z,3.53
2016-12-14T06:25:38.980Z,3.51
2016-12-14T06:26:38.967Z,3.57
2016-12-14T06:27:38.946Z,3.53
2016-12-14T06:28:38.935Z,3.54
2016-12-14T06:29:38.921Z,3.56
2016-12-14T06:30:38.907Z,3.6
2016-12-14T06:31:38.889Z,3.51
2016-12-14T06:32:38.877Z,3.51
2016-12-14T06:33:38.888Z,3.57
2016-12-14T06:34:38.845Z,3.63
2016-12-14T06:35:38.862Z,3.63
2016-12-14T06:36:38.817Z,3.64
2016-12-14T06:37:38.802Z,3.66
2016-12-14T06:38:38.788Z,3.63
2016-12-14T06:39:38.779Z,3.63
2016-12-14T06:40:38.764Z,3.67
2016-12-14T06:41:38.748Z,3.66
2016-12-14T06:42:38.734Z,3.6
2016-12-14T06:43:38.718Z,3.63
2016-12-14T06:44:38.704Z,3.57
2016-12-14T06:45:38.689Z,3.61
2016-12-14T06:46:38.680Z,3.6
2016-12-14T06:47:38.659Z,3.61
2016-12-14T06:48:38.647Z,3.67
2016-12-14T06:49:38.629Z,3.63
2016-12-14T06:50:38.618Z,3.6
2016-12-14T06:51:38.607Z,3.58
2016-12-14T06:52:38.588Z,3.51
2016-12-14T06:53:38.573Z,3.6
2016-12-14T06:54:38.580Z,3.63
2016-12-14T06:55:38.547Z,3.67
2016-12-14T06:56:38.539Z,3.6
2016-12-14T06:57:38.514Z,3.61
2016-12-14T06:58:38.510Z,3.67
2016-12-14T06:59:38.493Z,3.57
2016-12-14T07:00:38.787Z,3.6
2016-12-14T07:01:38.460Z,3.63
2016-12-14T07:02:38.769Z,3.61
2016-12-14T07:03:38.429Z,3.61
2016-12-14T07:04:38.417Z,3.6
2016-12-14T07:05:38.406Z,3.6
2016-12-14T07:06:38.394Z,3.6
2016-12-14T07:07:38.374Z,3.63
2016-12-14T07:08:38.358Z,3.61
2016-12-14T07:09:38.704Z,3.63
2016-12-14T07:10:38.332Z,3.63
2016-12-14T07:11:38.632Z,3.67
2016-12-14T07:12:38.302Z,3.58
2016-12-14T07:13:38.290Z,3.64
2016-12-14T07:14:38.273Z,3.54
2016-12-14T07:15:38.261Z,3.48
2016-12-14T07:16:38.243Z,3.49
2016-12-14T07:17:38.231Z,3.49
2016-12-14T07:18:38.217Z,3.54
2016-12-14T07:19:38.200Z,3.48
2016-12-14T07:20:38.192Z,3.57
2016-12-14T07:21:38.172Z,3.6
2016-12-14T07:22:38.155Z,3.48
2016-12-14T07:23:38.148Z,3.56
2016-12-14T07:24:38.454Z,3.61
2016-12-14T07:25:38.139Z,3.6
2016-12-14T07:26:38.109Z,3.61
2016-12-14T07:27:38.085Z,3.61
2016-12-14T07:28:38.073Z,3.64
2016-12-14T07:29:38.059Z,3.72
2016-12-14T07:30:38.044Z,3.71
2016-12-14T07:31:38.345Z,3.75
2016-12-14T07:32:38.022Z,3.69
2016-12-14T07:33:38.001Z,3.67
2016-12-14T07:34:37.991Z,3.66
2016-12-14T07:35:37.976Z,3.75
2016-12-14T07:36:37.959Z,3.74
2016-12-14T07:37:37.945Z,3.74
2016-12-14T07:38:37.931Z,3.71
2016-12-14T07:39:37.917Z,3.72
2016-12-14T07:40:37.900Z,3.76
2016-12-14T07:41:37.891Z,3.67
2016-12-14T07:42:37.868Z,3.78
2016-12-14T07:43:37.860Z,3.71
2016-12-14T07:44:37.845Z,3.72
2016-12-14T07:45:37.832Z,3.78
2016-12-14T07:46:37.818Z,3.79
2016-12-14T07:47:37.809Z,3.74
2016-12-14T07:48:37.788Z,3.75
2016-12-14T07:49:37.773Z,3.64
2016-12-14T07:50:37.792Z,3.67
2016-12-14T07:51:37.747Z,3.81
2016-12-14T07:52:37.759Z,3.71
2016-12-14T07:53:37.720Z,3.67
2016-12-14T07:54:37.706Z,3.72
2016-12-14T07:55:37.687Z,3.75
2016-12-14T07:56:37.688Z,3.75
2016-12-14T07:57:37.662Z,3.63
2016-12-14T07:58:37.674Z,3.69
2016-12-14T07:59:37.633Z,3.67
2016-12-14T08:00:37.617Z,3.69
2016-12-14T08:01:37.606Z,3.76
2016-12-14T08:02:37.594Z,3.67
2016-12-14T08:03:37.573Z,3.69
2016-12-14T08:04:37.564Z,3.72
2016-12-14T08:05:37.546Z,3.67
2016-12-14T08:06:37.533Z,3.63
2016-12-14T08:07:37.519Z,3.74
2016-12-14T08:08:37.506Z,3.72
2016-12-14T08:09:37.492Z,3.66
2016-12-14T08:10:37.477Z,3.72
2016-12-14T08:11:37.782Z,3.79
2016-12-14T08:12:37.449Z,3.63
2016-12-14T08:13:37.433Z,3.71
2016-12-14T08:14:37.419Z,3.72
2016-12-14T08:15:37.403Z,3.79
2016-12-14T08:16:37.392Z,3.84
2016-12-14T08:17:37.376Z,3.85
2016-12-14T08:18:37.363Z,3.82
2016-12-14T08:19:37.348Z,3.84
2016-12-14T08:20:37.337Z,3.86
2016-12-14T08:21:37.318Z,3.84
2016-12-14T08:22:37.310Z,3.85
2016-12-14T08:23:37.291Z,3.92
2016-12-14T08:24:37.274Z,3.84
2016-12-14T08:25:37.261Z,3.93
2016-12-14T08:26:37.247Z,3.81
2016-12-14T08:27:37.233Z,3.94
2016-12-14T08:28:37.223Z,3.93
2016-12-14T08:29:37.205Z,3.99
2016-12-14T08:30:37.191Z,3.94
2016-12-14T08:31:37.175Z,3.93
2016-12-14T08:32:37.167Z,3.93
2016-12-14T08:33:37.148Z,3.92
2016-12-14T08:34:37.144Z,3.82
2016-12-14T08:35:37.128Z,3.84
2016-12-14T08:36:37.110Z,3.86
2016-12-14T08:37:37.093Z,3.9
2016-12-14T08:38:37.085Z,3.94
2016-12-14T08:39:37.068Z,3.92
2016-12-14T08:40:37.047Z,3.92
2016-12-14T08:41:37.040Z,3.93
2016-12-14T08:42:37.024Z,3.99
2016-12-14T08:43:37.007Z,3.94
2016-12-14T08:44:36.993Z,4
2016-12-14T08:45:36.979Z,3.99
2016-12-14T08:46:36.966Z,4
2016-12-14T08:47:36.951Z,4
2016-12-14T08:48:36.938Z,3.94
2016-12-14T08:49:36.923Z,3.94
2016-12-14T08:50:36.907Z,3.94
2016-12-14T08:51:36.895Z,3.99
2016-12-14T08:52:36.879Z,3.92
2016-12-14T08:53:36.867Z,4.02
2016-12-14T08:54:36.853Z,4.12
2016-12-14T08:55:36.849Z,3.94
2016-12-14T08:56:36.830Z,4.03
2016-12-14T08:57:36.810Z,4.04
2016-12-14T08:58:36.797Z,4.12
2016-12-14T08:59:36.783Z,4.12
2016-12-14T09:00:36.771Z,4.15
2016-12-14T09:01:36.753Z,4.21
2016-12-14T09:02:36.743Z,4.21
2016-12-14T09:03:36.726Z,4.15
2016-12-14T09:04:36.716Z,4.12
2016-12-14T09:05:36.697Z,4.17
2016-12-14T09:06:36.683Z,4.17
2016-12-14T09:07:36.671Z,4.24
2016-12-14T09:08:36.655Z,4.15
2016-12-14T09:09:36.641Z,4.2
2016-12-14T09:10:36.638Z,4.21
2016-12-14T09:11:36.615Z,4.2
2016-12-14T09:12:36.606Z,4.26
2016-12-14T09:13:36.591Z,4.2
2016-12-14T09:14:36.573Z,4.2
2016-12-14T09:15:36.560Z,4.28
2016-12-14T09:16:36.546Z,4.33
2016-12-14T09:17:36.531Z,4.26
2016-12-14T09:18:36.832Z,4.29
2016-12-14T09:19:36.503Z,4.36
2016-12-14T09:20:36.491Z,4.3
2016-12-14T09:21:36.476Z,4.35
2016-12-14T09:22:36.463Z,4.38
2016-12-14T09:23:36.455Z,4.24
2016-12-14T09:24:36.439Z,4.26
2016-12-14T09:25:36.429Z,4.29
2016-12-14T09:26:36.406Z,4.4
2016-12-14T09:27:36.393Z,4.42
2016-12-14T09:28:36.376Z,4.4
2016-12-14T09:29:36.366Z,4.44
2016-12-14T09:30:36.352Z,4.51
2016-12-14T09:31:36.656Z,4.54
2016-12-14T09:32:36.327Z,4.56
2016-12-14T09:33:36.309Z,4.51
2016-12-14T09:34:36.297Z,4.61
2016-12-14T09:35:36.286Z,4.64
2016-12-14T09:36:36.271Z,4.68
2016-12-14T09:37:36.256Z,4.65
2016-12-14T09:38:36.244Z,4.66
2016-12-14T09:39:36.260Z,4.66
2016-12-14T09:40:36.213Z,4.69
2016-12-14T09:41:36.211Z,4.68
2016-12-14T09:42:36.189Z,4.72
2016-12-14T09:43:36.176Z,4.76
2016-12-14T09:44:36.157Z,4.76
2016-12-14T09:45:36.149Z,4.78
2016-12-14T09:46:36.137Z,4.78
2016-12-14T09:47:36.141Z,4.87
2016-12-14T09:48:36.103Z,4.87
2016-12-14T09:49:36.093Z,4.88
2016-12-14T09:50:36.078Z,4.87
2016-12-14T09:51:36.065Z,4.79
2016-12-14T09:52:36.050Z,4.87
2016-12-14T09:53:36.040Z,4.9
2016-12-14T09:54:36.024Z,4.88
2016-12-14T09:55:36.012Z,4.91
2016-12-14T09:56:36.004Z,4.84
2016-12-14T09:57:35.985Z,4.92
2016-12-14T09:58:35.971Z,4.92
2016-12-14T09:59:35.960Z,4.97
2016-12-14T10:00:35.952Z,4.91
2016-12-14T10:01:35.930Z,4.94
2016-12-14T10:02:35.917Z,4.94
2016-12-14T10:03:35.905Z,4.92
2016-12-14T10:04:35.888Z,4.95
2016-12-14T10:05:35.878Z,4.87
2016-12-14T10:06:35.865Z,4.79
2016-12-14T10:07:35.849Z,4.84
2016-12-14T10:08:35.839Z,4.79
2016-12-14T10:09:35.825Z,4.85
2016-12-14T10:10:35.813Z,4.87
2016-12-14T10:11:35.799Z,4.84
2016-12-14T10:12:35.785Z,4.84
2016-12-14T10:13:35.769Z,4.84
2016-12-14T10:14:35.758Z,5
2016-12-14T10:15:35.742Z,4.95
2016-12-14T10:16:35.734Z,5.02
2016-12-14T10:17:35.715Z,5
2016-12-14T10:18:35.707Z,5.08
2016-12-14T10:19:35.690Z,5.09
2016-12-14T10:20:35.677Z,5.05
2016-12-14T10:21:35.669Z,5.08
2016-12-14T10:22:35.651Z,5.08
2016-12-14T10:23:35.639Z,5.05
2016-12-14T10:24:35.625Z,5.1
2016-12-14T10:25:35.611Z,5.06
2016-12-14T10:26:35.595Z,5.02
2016-12-14T10:27:35.905Z,5.05
2016-12-14T10:28:35.573Z,5.05
2016-12-14T10:29:35.561Z,4.97
2016-12-14T10:30:35.543Z,5
2016-12-14T10:31:35.533Z,5.05
2016-12-14T10:32:35.519Z,4.95
2016-12-14T10:33:35.510Z,5.03
2016-12-14T10:34:35.495Z,5.05
2016-12-14T10:35:35.482Z,5.08
2016-12-14T10:36:35.471Z,5.05
2016-12-14T10:37:35.451Z,5.05
2016-12-14T10:38:35.440Z,5.15
2016-12-14T10:39:35.429Z,5.21
2016-12-14T10:40:35.737Z,5.16
2016-12-14T10:41:35.399Z,5.2
2016-12-14T10:42:35.387Z,5.21
2016-12-14T10:43:35.372Z,5.28
2016-12-14T10:44:35.363Z,5.2
2016-12-14T10:45:35.343Z,5.21
2016-12-14T10:46:35.336Z,5.26
2016-12-14T10:47:35.322Z,5.21
2016-12-14T10:48:35.306Z,5.26
2016-12-14T10:49:35.296Z,5.23
2016-12-14T10:50:35.289Z,5.23
2016-12-14T10:51:35.276Z,5.21
2016-12-14T10:52:35.262Z,5.16
2016-12-14T10:53:35.243Z,5.16
2016-12-14T10:54:35.231Z,5.16
2016-12-14T10:55:35.217Z,5.08
2016-12-14T10:56:35.207Z,5.09
2016-12-14T10:57:35.198Z,5.05
2016-12-14T10:58:35.179Z,5.02
2016-12-14T10:59:35.167Z,5.06
2016-12-14T11:00:35.153Z,5.03
2016-12-14T11:01:35.138Z,5.06
2016-12-14T11:02:35.125Z,4.95
2016-12-14T11:03:35.112Z,4.98
2016-12-14T11:04:35.099Z,4.95
2016-12-14T11:05:35.402Z,4.95
2016-12-14T11:06:35.072Z,4.92
2016-12-14T11:07:35.061Z,4.97
2016-12-14T11:08:35.043Z,4.94
2016-12-14T11:09:35.033Z,4.94
2016-12-14T11:10:35.023Z,5
2016-12-14T11:11:35.009Z,5.02
2016-12-14T11:12:34.995Z,4.95
2016-12-14T11:13:34.977Z,5.05
2016-12-14T11:14:34.970Z,5
2016-12-14T11:15:34.957Z,5.05
2016-12-14T11:16:34.937Z,5.03
2016-12-14T11:17:34.929Z,5.08
2016-12-14T11:18:34.917Z,5.05
2016-12-14T11:19:34.901Z,5.06
2016-12-14T11:20:34.889Z,5.06
2016-12-14T11:21:34.875Z,5.05
2016-12-14T11:22:35.177Z,5.02
2016-12-14T11:23:34.853Z,5
2016-12-14T11:24:34.834Z,5
2016-12-14T11:25:34.823Z,5.05
2016-12-14T11:26:34.807Z,5.02
2016-12-14T11:27:34.796Z,5.03
2016-12-14T11:28:34.784Z,5.02
2016-12-14T11:29:34.779Z,4.97
2016-12-14T11:30:34.755Z,5
2016-12-14T11:31:34.741Z,4.97
2016-12-14T11:32:34.727Z,4.97
2016-12-14T11:33:34.718Z,4.97
2016-12-14T11:34:34.702Z,5
2016-12-14T11:35:34.688Z,5.02
2016-12-14T11:36:34.676Z,5
2016-12-14T11:37:34.669Z,4.98
2016-12-14T11:38:34.653Z,5.05
2016-12-14T11:39:34.638Z,4.92
2016-12-14T11:40:34.626Z,5
2016-12-14T11:41:34.610Z,4.92
2016-12-14T11:42:34.600Z,5
2016-12-14T11:43:34.583Z,5.05
2016-12-14T11:44:34.571Z,5.1
2016-12-14T11:45:34.558Z,4.95
2016-12-14T11:46:34.546Z,4.92
2016-12-14T11:47:34.535Z,4.98
2016-12-14T11:48:34.516Z,5.06
2016-12-14T11:49:34.505Z,5.06
2016-12-14T11:50:34.493Z,5.08
2016-12-14T11:51:34.477Z,5.03
2016-12-14T11:52:34.475Z,5.02
2016-12-14T11:53:34.453Z,5.05
2016-12-14T11:54:34.439Z,5.06
2016-12-14T11:55:34.425Z,5.02
2016-12-14T11:56:34.411Z,5
2016-12-14T11:57:34.402Z,4.94
2016-12-14T11:58:34.384Z,4.97
2016-12-14T11:59:34.372Z,4.94
2016-12-14T12:00:34.365Z,4.91
2016-12-14T12:01:34.345Z,4.94
2016-12-14T12:02:34.334Z,4.98
2016-12-14T12:03:34.321Z,5
2016-12-14T12:04:34.306Z,5.02
2016-12-14T12:05:34.293Z,5.06
2016-12-14T12:06:34.277Z,5.05
2016-12-14T12:07:34.271Z,5.03
2016-12-14T12:08:34.255Z,5.06
2016-12-14T12:09:34.314Z,5.08
2016-12-14T12:10:34.228Z,5.12
2016-12-14T12:11:34.214Z,5.08
2016-12-14T12:12:34.201Z,5.1
2016-12-14T12:13:34.187Z,5.09
2016-12-14T12:14:34.180Z,5
2016-12-14T12:15:34.189Z,5.1
2016-12-14T12:16:34.153Z,5.09
2016-12-14T12:17:34.137Z,5.06
2016-12-14T12:18:34.121Z,5.13
2016-12-14T12:19:34.107Z,5.03
2016-12-14T12:20:34.106Z,5.1
2016-12-14T12:21:34.086Z,5.08
2016-12-14T12:22:34.073Z,5.05
2016-12-14T12:23:34.059Z,5.09
2016-12-14T12:24:34.046Z,5.09
2016-12-14T12:25:34.032Z,5.09
2016-12-14T12:26:34.020Z,5.09
2016-12-14T12:27:34.004Z,5.1
2016-12-14T12:28:33.997Z,5.12
2016-12-14T12:29:33.976Z,5.15
2016-12-14T12:30:33.965Z,5.13
2016-12-14T12:31:33.950Z,5.15
2016-12-14T12:32:33.940Z,5.15
2016-12-14T12:33:34.239Z,5.13
2016-12-14T12:34:33.913Z,5.15
2016-12-14T12:35:33.902Z,5.15
2016-12-14T12:36:33.886Z,5.23
2016-12-14T12:37:33.872Z,5.27
2016-12-14T12:38:33.862Z,5.21
2016-12-14T12:39:33.854Z,5.18
2016-12-14T12:40:33.833Z,5.31
2016-12-14T12:41:33.818Z,5.26
2016-12-14T12:42:33.808Z,5.27
2016-12-14T12:43:33.798Z,5.21
2016-12-14T12:44:33.784Z,5.23
2016-12-14T12:45:33.770Z,5.26
2016-12-14T12:46:33.758Z,5.18
2016-12-14T12:47:33.744Z,5.2
2016-12-14T12:48:33.730Z,5.23
2016-12-14T12:49:33.717Z,5.23
2016-12-14T12:50:34.020Z,5.16
2016-12-14T12:51:33.695Z,5.24
2016-12-14T12:52:33.678Z,5.18
2016-12-14T12:53:33.664Z,5.23
2016-12-14T12:54:33.652Z,5.16
2016-12-14T12:55:33.638Z,5.28
2016-12-14T12:56:33.627Z,5.24
2016-12-14T12:57:33.615Z,5.23
2016-12-14T12:58:33.601Z,5.24
2016-12-14T12:59:33.588Z,5.27
2016-12-14T13:00:33.577Z,5.28
2016-12-14T13:01:33.561Z,5.23
2016-12-14T13:02:33.546Z,5.23
2016-12-14T13:03:33.537Z,5.24
2016-12-14T13:04:33.554Z,5.3
2016-12-14T13:05:33.510Z,5.3
2016-12-14T13:06:33.494Z,5.23
2016-12-14T13:07:33.485Z,5.2
2016-12-14T13:08:33.472Z,5.3
2016-12-14T13:09:33.458Z,5.3
2016-12-14T13:10:33.447Z,5.24
2016-12-14T13:11:33.432Z,5.26
2016-12-14T13:12:33.418Z,5.23
2016-12-14T13:13:33.405Z,5.2
2016-12-14T13:14:33.426Z,5.26
2016-12-14T13:15:33.377Z,5.27
2016-12-14T13:16:33.363Z,5.26
2016-12-14T13:17:33.361Z,5.23
2016-12-14T13:18:33.346Z,5.33
2016-12-14T13:19:33.329Z,5.34
2016-12-14T13:20:33.315Z,5.27
2016-12-14T13:21:33.302Z,5.27
2016-12-14T13:22:33.288Z,5.26